Portada
METAR-TAF:

METAR-TAF

Aeropuertos :

Clinton, Arkansas, Estados Unidos

latitud: 35-35-52N, longitud: 092-27-06W, altitud: 157 m

Observación

El informe se hizo hace 14 minutos, a las 07:35 UTC
Viento calma
Temperatura 22°C
Humedad 100%
Presión 1015 hPa
Visibilidad: 2.8 km
Cielo cubierto a una altura de 400 ft
neblina

METAR: KCCA 060735Z AUTO 00000KT 1 3/4SM BR OVC004 22/22 A2996 RMK AO2 VIS 3/4V4

Hora: 02:49 (07:49 UTC)


TAF: falta

Observaciones y pronósticos meteorológicos de más de 4000 aeropuertos (mensajes METAR y TAF).

Los puntos amarillos y rojos representan las estaciones disponibles.

Ponga el ratón en el punto deseado para ver el nombre de la estación.

Haga clic para ver las observaciones y los pronósticos meteorológicos.

Para cambiar el mapa : haga clic en los botones verdes con una cruz de color negro para hacer un zoom, en el botón verde con un guión para alejar o en las flechas verdes para mapas adyacentes.


METAR-TAF: